Time;durP1;ratioP1;P1;durP2;ratioP2;P2;SDS_P1;SDS_P2;PMS_P1;PMS_P2;Temp;Humidity;BMP_temperature;BMP_pressure;BME280_temperature;BME280_humidity;BME280_pressure;Samples;Min_cycle;Max_cycle;Signal;HPM_P1;HPM_P2
2023/06/17 00:00:28;;;;;;;;;15.33;14.33;;;;;25.65;34.32;101037.44;4958833;28;45395;-70
2023/06/17 00:02:53;;;;;;;;;16.33;15.00;;;;;25.51;35.05;101020.50;4958177;28;45983;-68
2023/06/17 00:05:18;;;;;;;;;20.00;16.33;;;;;25.22;34.11;100975.94;4958064;28;45465;-69
2023/06/17 00:07:44;;;;;;;;;16.67;14.33;;;;;25.61;33.78;101042.50;4958243;28;45240;-72
2023/06/17 00:10:10;;;;;;;;;16.00;16.00;;;;;25.61;34.11;101042.50;4958755;28;45518;-69
2023/06/17 00:12:36;;;;;;;;;19.67;17.33;;;;;25.57;34.40;101051.38;4958141;28;45593;-69
2023/06/17 00:15:04;;;;;;;;;12.00;12.00;;;;;25.53;34.56;101028.41;4958257;28;45255;-70
2023/06/17 00:17:30;;;;;;;;;16.67;15.00;;;;;25.52;34.41;101032.22;4958511;28;45247;-69
2023/06/17 00:20:11;;;;;;;;;16.67;15.33;;;;;25.49;34.42;101025.34;4958212;28;45316;-69
2023/06/17 00:22:39;;;;;;;;;15.00;14.67;;;;;25.12;34.46;100967.56;4957796;28;46950;-70
2023/06/17 00:25:07;;;;;;;;;17.00;17.00;;;;;25.10;34.70;100959.63;4958193;28;45237;-70
2023/06/17 00:27:32;;;;;;;;;16.33;16.33;;;;;25.30;34.79;100996.56;4940556;28;45455;-70
2023/06/17 00:30:00;;;;;;;;;17.67;15.33;;;;;25.48;34.38;101020.97;4958362;28;45289;-70
2023/06/17 00:32:30;;;;;;;;;16.67;16.67;;;;;25.44;34.73;101019.78;4958133;28;45734;-69
2023/06/17 00:34:56;;;;;;;;;15.00;15.00;;;;;25.44;35.05;101019.78;4957953;28;45321;-70
2023/06/17 00:37:22;;;;;;;;;14.33;13.67;;;;;25.40;34.29;101013.13;4957877;28;45434;-71
2023/06/17 00:39:47;;;;;;;;;15.67;15.33;;;;;25.35;34.62;101005.69;4958069;28;45538;-69
2023/06/17 00:42:12;;;;;;;;;17.00;15.33;;;;;25.36;34.72;101009.22;4956415;28;48512;-71
2023/06/17 00:44:41;;;;;;;;;16.00;15.00;;;;;25.26;34.86;100990.78;4957783;28;45538;-70
2023/06/17 00:47:08;;;;;;;;;15.00;15.00;;;;;25.33;34.84;101001.53;4958039;28;45582;-70
2023/06/17 00:49:36;;;;;;;;;17.67;17.67;;;;;25.19;34.94;100987.31;4956867;28;45269;-70
2023/06/17 00:52:07;;;;;;;;;14.33;14.33;;;;;25.17;34.50;100990.25;4957462;28;46137;-69
2023/06/17 00:54:35;;;;;;;;;15.00;15.00;;;;;25.23;34.63;100990.38;4957829;28;45337;-71
2023/06/17 00:57:01;;;;;;;;;16.00;15.00;;;;;25.17;35.06;100990.25;4956483;28;45300;-70
2023/06/17 00:59:32;;;;;;;;;14.33;13.33;;;;;25.13;35.09;100991.81;4957979;28;45956;-70
2023/06/17 01:01:57;;;;;;;;;14.33;14.33;;;;;24.79;34.87;100924.53;4957560;28;47222;-70
2023/06/17 01:04:23;;;;;;;;;17.67;16.67;;;;;25.04;35.25;100968.75;4957280;28;49028;-70
2023/06/17 01:06:56;;;;;;;;;16.00;16.00;;;;;25.09;36.39;100974.28;4957372;28;45208;-70
2023/06/17 01:09:27;;;;;;;;;14.00;14.00;;;;;25.07;35.23;100976.44;4957875;28;45363;-70
2023/06/17 01:11:57;;;;;;;;;16.33;15.67;;;;;25.01;35.65;100977.34;4957596;28;46249;-70
2023/06/17 01:14:24;;;;;;;;;16.33;16.33;;;;;24.92;36.24;100959.69;4957550;28;45568;-72
2023/06/17 01:16:54;;;;;;;;;14.00;14.00;;;;;24.78;35.81;100942.72;4957863;28;45298;-70
2023/06/17 01:19:24;;;;;;;;;17.33;17.00;;;;;24.93;35.81;100969.50;4957716;28;45456;-69
2023/06/17 01:21:51;;;;;;;;;17.67;15.67;;;;;24.88;35.58;100953.06;4956974;28;45755;-71
2023/06/17 01:24:27;;;;;;;;;17.33;17.00;;;;;24.92;35.94;100962.41;4957979;28;45466;-70
2023/06/17 01:26:57;;;;;;;;;16.00;12.67;;;;;24.87;35.79;100965.81;4960819;28;45359;-69
2023/06/17 01:29:30;;;;;;;;;19.00;16.67;;;;;24.77;35.85;100956.56;4959565;28;45389;-69
2023/06/17 01:31:57;;;;;;;;;16.33;16.33;;;;;24.58;36.39;100928.59;4960569;28;45653;-69
2023/06/17 01:34:33;;;;;;;;;18.00;17.33;;;;;24.81;35.88;100965.91;4960604;28;45395;-70
2023/06/17 01:37:01;;;;;;;;;15.33;15.00;;;;;24.87;37.48;100978.59;4960546;28;45268;-69
2023/06/17 01:39:27;;;;;;;;;17.00;17.00;;;;;24.82;35.99;100979.28;4961046;28;45578;-70
2023/06/17 01:41:57;;;;;;;;;14.67;14.67;;;;;24.77;37.09;100965.53;4960225;28;45518;-70
2023/06/17 01:44:23;;;;;;;;;16.67;16.67;;;;;24.77;36.72;100965.53;4960682;28;45372;-71
2023/06/17 01:46:49;;;;;;;;;15.00;15.00;;;;;24.65;38.13;100948.38;4943252;28;45351;-70
2023/06/17 01:49:14;;;;;;;;;20.33;17.33;;;;;24.68;36.37;100947.91;4959747;28;45564;-70
2023/06/17 01:51:40;;;;;;;;;16.67;15.67;;;;;24.38;36.74;100900.88;4959870;28;46265;-70
2023/06/17 01:54:05;;;;;;;;;10.67;10.67;;;;;24.65;36.65;100950.28;4960669;28;45444;-71
2023/06/17 01:56:31;;;;;;;;;13.33;13.33;;;;;24.63;37.09;100949.66;4943022;28;45260;-70
2023/06/17 01:58:56;;;;;;;;;18.67;16.33;;;;;24.65;36.71;100956.53;4959460;28;45212;-71
2023/06/17 02:01:21;;;;;;;;;13.67;13.67;;;;;24.57;36.74;100949.53;4960287;28;45354;-70
2023/06/17 02:03:47;;;;;;;;;17.67;17.33;;;;;24.58;36.72;100950.34;4960275;28;45479;-70
2023/06/17 02:06:12;;;;;;;;;14.67;14.67;;;;;24.52;37.11;100957.56;4960371;28;45381;-71
2023/06/17 02:08:38;;;;;;;;;16.33;14.00;;;;;24.56;36.72;100949.75;4942753;28;45324;-71
2023/06/17 02:11:03;;;;;;;;;17.00;16.00;;;;;24.57;37.30;100954.13;4960357;28;47641;-70
2023/06/17 02:13:29;;;;;;;;;17.00;15.00;;;;;24.55;36.97;100950.81;4942786;28;46469;-71
2023/06/17 02:15:54;;;;;;;;;14.00;13.67;;;;;24.65;37.62;100958.44;4942697;28;45304;-70
2023/06/17 02:18:19;;;;;;;;;15.33;15.33;;;;;24.64;37.69;100959.50;4960501;28;45518;-70
2023/06/17 02:20:46;;;;;;;;;15.00;13.33;;;;;24.48;38.88;100934.63;4960110;28;46549;-69
2023/06/17 02:23:11;;;;;;;;;13.67;13.67;;;;;24.55;38.08;100935.34;4960161;28;45314;-70
2023/06/17 02:25:39;;;;;;;;;15.33;15.33;;;;;24.63;37.44;100944.22;4960029;28;45508;-71
2023/06/17 02:28:05;;;;;;;;;16.67;15.67;;;;;24.68;37.75;100953.34;4942780;28;45192;-69
2023/06/17 02:30:31;;;;;;;;;16.00;16.00;;;;;24.67;37.54;100954.41;4942146;28;47960;-71
2023/06/17 02:32:56;;;;;;;;;15.67;15.67;;;;;24.58;37.39;100940.31;4959743;28;45439;-70
2023/06/17 02:35:21;;;;;;;;;14.67;14.33;;;;;24.55;37.77;100929.91;4958693;28;45272;-69
2023/06/17 02:37:47;;;;;;;;;14.33;14.33;;;;;24.58;37.12;100934.88;4959364;28;45463;-69
2023/06/17 02:40:12;;;;;;;;;15.00;14.00;;;;;24.58;37.39;100929.44;4959708;28;45624;-72
2023/06/17 02:42:38;;;;;;;;;16.00;16.00;;;;;24.65;37.53;100937.50;4959579;28;45418;-71
2023/06/17 02:45:06;;;;;;;;;14.67;14.67;;;;;24.67;38.42;100937.28;4960026;28;45477;-69
2023/06/17 02:47:32;;;;;;;;;17.00;15.00;;;;;24.67;37.38;100929.13;4958661;28;45686;-69
2023/06/17 02:49:57;;;;;;;;;18.67;18.67;;;;;24.66;37.53;100930.19;4959554;28;46166;-69
2023/06/17 02:52:23;;;;;;;;;16.00;16.00;;;;;24.63;37.51;100919.75;4957935;28;45276;-70
2023/06/17 02:54:50;;;;;;;;;19.33;18.00;;;;;24.56;38.81;100923.41;4959638;28;45212;-70
2023/06/17 02:57:15;;;;;;;;;18.00;17.00;;;;;24.10;37.79;100852.56;4942278;28;45502;-71
2023/06/17 02:59:41;;;;;;;;;17.33;17.33;;;;;24.34;38.43;100892.38;4959130;28;45646;-71
2023/06/17 03:02:06;;;;;;;;;17.67;16.67;;;;;24.46;38.49;100923.16;4959294;28;45478;-71
2023/06/17 03:04:35;;;;;;;;;20.67;19.00;;;;;24.40;39.30;100905.03;4958223;28;45277;-71
2023/06/17 03:07:11;;;;;;;;;15.00;15.00;;;;;24.44;40.07;100917.13;4941703;28;45533;-70
2023/06/17 03:09:37;;;;;;;;;17.00;17.00;;;;;24.40;39.44;100905.03;4959054;28;45869;-69
2023/06/17 03:12:02;;;;;;;;;18.33;18.33;;;;;24.24;40.76;100878.50;4959506;28;45340;-69
2023/06/17 03:14:29;;;;;;;;;16.33;16.33;;;;;24.43;38.74;100907.31;4959663;28;45230;-71
2023/06/17 03:16:57;;;;;;;;;15.33;15.33;;;;;24.22;39.73;100875.97;4959537;28;45383;-71
2023/06/17 03:19:26;;;;;;;;;15.67;15.67;;;;;24.17;40.28;100875.84;4959026;28;46626;-70
2023/06/17 03:21:51;;;;;;;;;15.00;15.00;;;;;24.41;41.75;100912.13;4958685;28;45445;-69
2023/06/17 03:24:17;;;;;;;;;20.00;19.00;;;;;24.45;39.31;100924.22;4959281;28;45259;-71
2023/06/17 03:26:42;;;;;;;;;14.33;13.00;;;;;24.36;39.09;100917.44;4959266;28;45308;-69
2023/06/17 03:29:07;;;;;;;;;15.00;14.33;;;;;24.40;41.90;100934.94;4958802;28;45733;-69
2023/06/17 03:31:33;;;;;;;;;16.67;15.67;;;;;24.22;42.10;100891.47;4958722;28;51774;-69
2023/06/17 03:33:58;;;;;;;;;15.67;14.33;;;;;24.38;38.88;100923.47;4959166;28;45395;-70
2023/06/17 03:36:29;;;;;;;;;16.67;16.67;;;;;24.32;39.09;100910.81;4958979;28;45271;-69
2023/06/17 03:38:56;;;;;;;;;18.33;18.33;;;;;24.32;38.71;100908.09;4958766;28;46611;-71
2023/06/17 03:41:26;;;;;;;;;16.33;16.33;;;;;24.24;39.70;100914.66;4958986;28;45444;-69
2023/06/17 03:43:51;;;;;;;;;18.67;17.67;;;;;24.11;38.62;100905.84;4958805;28;45526;-72
2023/06/17 03:46:17;;;;;;;;;14.33;13.67;;;;;24.12;39.98;100912.94;4958439;28;45168;-71
2023/06/17 03:48:42;;;;;;;;;17.67;16.67;;;;;24.07;39.30;100891.06;4958552;28;46240;-70
2023/06/17 03:51:08;;;;;;;;;16.33;15.67;;;;;23.97;39.12;100895.13;4958194;28;45411;-72
2023/06/17 03:53:33;;;;;;;;;14.00;14.00;;;;;24.04;40.44;100905.09;4941253;28;45562;-70
2023/06/17 03:55:58;;;;;;;;;15.33;15.33;;;;;23.95;39.53;100893.72;4958791;28;45354;-71
2023/06/17 03:58:24;;;;;;;;;18.33;16.33;;;;;24.04;38.97;100899.66;4958082;28;52777;-70
2023/06/17 04:00:50;;;;;;;;;17.00;17.00;;;;;24.06;39.34;100908.41;4958594;28;45385;-70
2023/06/17 04:03:18;;;;;;;;;13.67;13.00;;;;;24.07;39.67;100918.22;4940849;28;45284;-70
2023/06/17 04:05:43;;;;;;;;;18.67;16.00;;;;;24.10;39.91;100915.03;4958275;28;45331;-73
2023/06/17 04:08:09;;;;;;;;;16.33;14.00;;;;;24.02;39.48;100902.59;4958268;28;45516;-69
2023/06/17 04:10:34;;;;;;;;;20.33;16.67;;;;;24.11;40.63;100913.97;4940627;28;46086;-70
2023/06/17 04:13:00;;;;;;;;;15.00;15.00;;;;;23.66;39.66;100844.56;4958126;28;45413;-68
2023/06/17 04:15:25;;;;;;;;;18.00;16.67;;;;;24.07;39.40;100904.66;4958325;28;45529;-70
2023/06/17 04:17:50;;;;;;;;;17.00;14.67;;;;;24.08;39.75;100914.44;4957574;28;57237;-69
2023/06/17 04:20:16;;;;;;;;;15.33;14.00;;;;;24.01;39.57;100895.50;4957848;28;45509;-70
2023/06/17 04:22:43;;;;;;;;;17.67;17.67;;;;;24.09;39.43;100913.38;4940435;28;45383;-69
2023/06/17 04:25:10;;;;;;;;;16.00;15.67;;;;;24.04;39.45;100905.09;4958360;28;45536;-70
2023/06/17 04:27:36;;;;;;;;;12.33;12.00;;;;;24.06;39.31;100905.69;4957651;28;46785;-70
2023/06/17 04:30:03;;;;;;;;;14.67;14.67;;;;;23.99;39.41;100903.06;4940261;28;45493;-69
2023/06/17 04:32:29;;;;;;;;;11.33;10.33;;;;;23.94;39.27;100906.47;4957972;28;45476;-70
2023/06/17 04:34:55;;;;;;;;;17.00;15.33;;;;;23.91;39.45;100906.09;4958317;28;45257;-71
2023/06/17 04:37:20;;;;;;;;;19.00;19.00;;;;;23.98;39.34;100912.25;4957805;28;45557;-71
2023/06/17 04:39:46;;;;;;;;;10.00;10.00;;;;;23.96;41.42;100898.91;4957776;28;45394;-69
2023/06/17 04:42:16;;;;;;;;;16.67;16.00;;;;;24.08;39.87;100914.44;4957859;28;45267;-70
2023/06/17 04:44:41;;;;;;;;;16.33;13.33;;;;;24.16;41.00;100920.38;4957987;28;45260;-71
2023/06/17 04:47:09;;;;;;;;;11.00;11.00;;;;;24.23;41.07;100925.75;4957563;28;46042;-70
2023/06/17 04:49:41;;;;;;;;;16.33;14.67;;;;;24.20;39.97;100915.31;4957881;28;45236;-69
2023/06/17 04:52:08;;;;;;;;;15.00;15.00;;;;;24.31;39.81;100914.56;4940158;28;45297;-69
2023/06/17 04:54:34;;;;;;;;;18.67;17.33;;;;;24.13;39.49;100892.84;4957904;28;45167;-69
2023/06/17 04:57:00;;;;;;;;;15.67;15.67;;;;;24.23;40.02;100904.00;4957476;28;46545;-69
2023/06/17 04:59:25;;;;;;;;;18.67;16.00;;;;;24.22;39.30;100908.59;4959629;28;45215;-69
2023/06/17 05:01:50;;;;;;;;;17.33;17.33;;;;;24.20;39.31;100909.88;4960963;28;45486;-69
2023/06/17 05:04:16;;;;;;;;;13.00;12.67;;;;;23.98;39.54;100869.63;4961613;28;45516;-71
2023/06/17 05:06:44;;;;;;;;;19.67;16.67;;;;;24.25;39.58;100905.44;4960831;28;45509;-69
2023/06/17 05:09:09;;;;;;;;;15.33;14.33;;;;;24.24;39.75;100895.63;4943630;28;45426;-69
2023/06/17 05:11:35;;;;;;;;;15.00;15.00;;;;;24.20;39.28;100888.97;4961065;28;45505;-70
2023/06/17 05:14:00;;;;;;;;;17.00;15.00;;;;;24.06;39.33;100867.69;4961424;28;45324;-70
2023/06/17 05:16:25;;;;;;;;;17.00;16.00;;;;;24.32;39.36;100902.66;4960962;28;45670;-72
2023/06/17 05:18:51;;;;;;;;;20.33;15.00;;;;;24.34;39.59;100895.09;4960304;28;53764;-70
2023/06/17 05:21:23;;;;;;;;;17.00;15.33;;;;;24.43;40.07;100882.84;4960430;28;45326;-68
2023/06/17 05:23:48;;;;;;;;;18.00;18.00;;;;;24.49;39.36;100892.78;4960952;28;45438;-70
2023/06/17 05:26:14;;;;;;;;;15.67;15.67;;;;;24.53;39.53;100893.97;4960474;28;45424;-71
2023/06/17 05:28:39;;;;;;;;;17.00;16.00;;;;;24.58;39.36;100896.81;4960888;28;45371;-71
2023/06/17 05:31:04;;;;;;;;;14.33;13.33;;;;;24.66;39.92;100892.13;4961001;28;45271;-69
2023/06/17 05:33:30;;;;;;;;;15.33;14.67;;;;;24.72;39.16;100889.28;4961077;28;45523;-70
2023/06/17 05:36:00;;;;;;;;;14.33;14.33;;;;;24.85;39.32;100885.53;4960508;28;45741;-70
2023/06/17 05:38:25;;;;;;;;;16.33;14.33;;;;;24.93;38.60;100887.91;4960663;28;45267;-70
2023/06/17 05:40:51;;;;;;;;;18.00;16.33;;;;;25.07;38.03;100897.53;4943339;28;45255;-70
2023/06/17 05:43:16;;;;;;;;;13.67;12.67;;;;;25.05;38.89;100882.50;4942943;28;45307;-70
2023/06/17 05:45:41;;;;;;;;;15.00;14.67;;;;;25.01;39.27;100863.09;4960482;28;46028;-71
2023/06/17 05:48:06;;;;;;;;;14.67;13.33;;;;;25.32;39.34;100893.75;4960358;28;45389;-71
2023/06/17 05:50:32;;;;;;;;;13.33;13.33;;;;;25.42;37.30;100896.69;4942254;28;57794;-75
2023/06/17 05:52:57;;;;;;;;;15.00;13.67;;;;;25.53;38.54;100898.56;4960601;28;45461;-69
2023/06/17 05:55:22;;;;;;;;;15.67;15.67;;;;;25.57;37.66;100874.41;4960066;28;47935;-69
2023/06/17 05:57:48;;;;;;;;;12.67;12.67;;;;;25.76;36.94;100893.09;4960137;28;45321;-70
2023/06/17 06:00:15;;;;;;;;;17.33;17.33;;;;;25.60;37.34;100858.41;4942960;28;45486;-68
2023/06/17 06:02:40;;;;;;;;;17.00;14.67;;;;;25.98;38.66;100897.91;4943261;28;45521;-71
2023/06/17 06:05:06;;;;;;;;;12.33;12.33;;;;;26.17;37.55;100904.00;4959672;28;48850;-71
2023/06/17 06:07:31;;;;;;;;;10.67;10.67;;;;;26.37;37.10;100904.41;4959679;28;45513;-70
2023/06/17 06:09:57;;;;;;;;;15.33;14.67;;;;;26.47;35.43;100879.25;4959612;28;45339;-71
2023/06/17 06:12:22;;;;;;;;;15.33;14.67;;;;;26.75;37.04;100897.44;4943149;28;45537;-69
2023/06/17 06:14:47;;;;;;;;;14.67;13.00;;;;;26.97;35.14;100910.09;4959321;28;65438;-70
2023/06/17 06:17:13;;;;;;;;;14.00;14.00;;;;;27.09;34.46;100910.06;4959883;28;45391;-69
2023/06/17 06:19:38;;;;;;;;;14.33;14.33;;;;;27.18;36.97;100904.97;4959809;28;45196;-71
2023/06/17 06:22:04;;;;;;;;;12.67;12.67;;;;;27.35;34.70;100900.31;4959814;28;45484;-71
2023/06/17 06:24:29;;;;;;;;;19.00;15.33;;;;;27.51;33.57;100904.94;4942133;28;46459;-69
2023/06/17 06:26:54;;;;;;;;;14.00;12.33;;;;;27.55;33.21;100917.00;4959662;28;45228;-70
2023/06/17 06:29:20;;;;;;;;;15.00;13.67;;;;;27.50;33.91;100913.38;4959846;28;45239;-71
2023/06/17 06:31:46;;;;;;;;;14.33;13.33;;;;;27.42;33.91;100902.88;4960340;28;45225;-69
2023/06/17 06:34:11;;;;;;;;;14.00;11.67;;;;;27.13;36.35;100858.50;4959425;28;46405;-71
2023/06/17 06:36:36;;;;;;;;;14.00;13.00;;;;;27.45;34.57;100894.19;4959513;28;45484;-70
2023/06/17 06:39:02;;;;;;;;;13.00;12.67;;;;;27.63;33.88;100910.28;4959753;28;45362;-70
2023/06/17 06:41:27;;;;;;;;;12.00;12.00;;;;;27.73;34.14;100907.72;4959775;28;45343;-71
2023/06/17 06:43:52;;;;;;;;;13.33;13.33;;;;;27.87;34.42;100922.66;4959667;28;48084;-69
2023/06/17 06:46:18;;;;;;;;;14.33;14.33;;;;;28.00;33.61;100913.22;4959677;28;45421;-71
2023/06/17 06:48:44;;;;;;;;;11.33;10.33;;;;;27.48;32.77;100796.22;4959808;28;45363;-71
2023/06/17 06:51:09;;;;;;;;;11.67;11.00;;;;;28.15;33.39;100877.03;4941764;28;45610;-70
2023/06/17 06:53:34;;;;;;;;;14.33;13.00;;;;;28.46;32.88;100917.34;4960500;28;45650;-74
2023/06/17 06:56:00;;;;;;;;;14.00;14.00;;;;;28.63;32.72;100921.84;4942008;28;46505;-71
2023/06/17 06:58:25;;;;;;;;;14.00;13.33;;;;;28.06;33.01;100838.44;4959336;28;45273;-70
2023/06/17 07:00:51;;;;;;;;;12.67;12.67;;;;;28.59;31.89;100921.53;4959709;28;45355;-71
2023/06/17 07:03:16;;;;;;;;;16.67;16.67;;;;;28.30;31.30;100887.34;4941556;28;48191;-72
2023/06/17 07:05:42;;;;;;;;;15.00;14.00;;;;;28.44;32.82;100924.16;4941523;28;45576;-69
2023/06/17 07:08:08;;;;;;;;;11.33;11.33;;;;;28.38;32.13;100919.69;4959359;28;45480;-69
2023/06/17 07:10:39;;;;;;;;;12.00;11.00;;;;;28.29;32.57;100918.50;4941822;28;45625;-71
2023/06/17 07:13:04;;;;;;;;;11.00;10.33;;;;;28.25;32.41;100933.75;4941742;28;45881;-70
2023/06/17 07:15:30;;;;;;;;;12.00;12.00;;;;;28.16;35.16;100931.47;4960605;28;45411;-71
2023/06/17 07:17:55;;;;;;;;;12.33;11.00;;;;;28.07;32.65;100926.72;4959387;28;45310;-70
2023/06/17 07:20:20;;;;;;;;;14.33;13.67;;;;;28.02;34.65;100935.66;4959208;28;45311;-70
2023/06/17 07:22:46;;;;;;;;;12.67;12.33;;;;;27.88;32.66;100916.09;4957370;28;51609;-71
2023/06/17 07:25:11;;;;;;;;;13.00;12.67;;;;;27.51;33.76;100866.69;4941516;28;45411;-69
2023/06/17 07:27:36;;;;;;;;;12.00;12.00;;;;;27.91;34.36;100935.81;4959134;28;45416;-70
2023/06/17 07:30:04;;;;;;;;;12.00;12.00;;;;;27.80;33.44;100915.72;4959004;28;45235;-71
2023/06/17 07:32:29;;;;;;;;;13.67;13.00;;;;;27.84;34.40;100930.53;4958500;28;45865;-70
2023/06/17 07:34:56;;;;;;;;;14.00;14.00;;;;;27.89;35.50;100930.59;4958087;28;58677;-70
2023/06/17 07:37:21;;;;;;;;;16.67;16.67;;;;;27.93;36.27;100945.41;4941918;28;45203;-70
2023/06/17 07:39:46;;;;;;;;;12.33;12.33;;;;;27.90;34.71;100929.50;4959074;28;45515;-70
2023/06/17 07:42:14;;;;;;;;;12.67;12.00;;;;;27.73;34.26;100912.34;4958560;28;46243;-70
2023/06/17 07:44:40;;;;;;;;;14.67;14.67;;;;;27.84;38.54;100919.59;4941362;28;46891;-71
2023/06/17 07:47:06;;;;;;;;;17.00;17.00;;;;;27.88;35.59;100935.22;4940397;28;54576;-71
2023/06/17 07:49:33;;;;;;;;;17.00;14.33;;;;;27.86;35.28;100928.38;4958569;28;45297;-69
2023/06/17 07:51:58;;;;;;;;;14.00;13.33;;;;;27.54;33.97;100887.22;4958354;28;45839;-71
2023/06/17 07:54:24;;;;;;;;;13.00;12.00;;;;;27.73;34.84;100917.81;4958660;28;45264;-71
2023/06/17 07:56:50;;;;;;;;;11.67;11.67;;;;;27.69;34.42;100913.94;4941746;28;45206;-68
2023/06/17 07:59:15;;;;;;;;;15.33;14.33;;;;;27.77;35.83;100936.16;4959174;28;45485;-69
2023/06/17 08:01:41;;;;;;;;;15.00;13.67;;;;;27.77;34.70;100936.16;4940356;28;48511;-71
2023/06/17 08:04:06;;;;;;;;;13.00;12.67;;;;;27.82;36.07;100932.66;4958325;28;45462;-74
2023/06/17 08:06:31;;;;;;;;;12.00;12.00;;;;;27.66;36.55;100900.78;4958189;28;45553;-74
2023/06/17 08:08:57;;;;;;;;;13.00;13.00;;;;;27.91;38.69;100936.63;4958438;28;45464;-73
2023/06/17 08:11:22;;;;;;;;;13.67;11.67;;;;;27.98;36.60;100948.19;4956917;28;45604;-70
2023/06/17 08:13:48;;;;;;;;;14.00;14.00;;;;;27.93;35.37;100928.19;4957822;28;45272;-70
2023/06/17 08:16:13;;;;;;;;;15.67;14.67;;;;;28.09;35.71;100932.75;4940810;28;45411;-71
2023/06/17 08:18:38;;;;;;;;;17.00;14.67;;;;;27.81;35.60;100873.63;4958010;28;45690;-71
2023/06/17 08:21:04;;;;;;;;;11.67;11.67;;;;;28.23;34.29;100922.22;4957896;28;45905;-71
2023/06/17 08:23:29;;;;;;;;;12.00;12.00;;;;;28.42;34.44;100921.66;4957884;28;45251;-70
2023/06/17 08:25:56;;;;;;;;;12.67;12.67;;;;;28.37;33.28;100905.19;4958141;28;45389;-72
2023/06/17 08:28:22;;;;;;;;;11.00;11.00;;;;;28.50;32.97;100931.31;4940807;28;45437;-70
2023/06/17 08:30:49;;;;;;;;;14.33;12.67;;;;;28.37;32.37;100904.38;4957787;28;46722;-70
2023/06/17 08:33:15;;;;;;;;;10.33;9.67;;;;;28.52;31.93;100917.38;4957777;28;45470;-72
2023/06/17 08:35:40;;;;;;;;;13.00;12.00;;;;;28.65;32.00;100912.31;4957692;28;45449;-71
2023/06/17 08:38:05;;;;;;;;;14.00;12.67;;;;;29.03;31.54;100903.09;4958078;28;45470;-72
2023/06/17 08:40:32;;;;;;;;;10.33;10.00;;;;;29.51;31.52;100900.41;4958100;28;46434;-71
2023/06/17 08:43:02;;;;;;;;;12.67;12.67;;;;;29.97;30.43;100902.25;4940240;28;45462;-70
2023/06/17 08:45:28;;;;;;;;;14.67;13.33;;;;;30.35;30.34;100893.88;4957752;28;46154;-70
2023/06/17 08:47:54;;;;;;;;;12.33;12.33;;;;;30.41;31.22;100893.59;4957878;28;45208;-70
2023/06/17 08:50:20;;;;;;;;;10.33;10.33;;;;;30.51;34.01;100893.63;4957541;28;46602;-73
2023/06/17 08:52:46;;;;;;;;;13.33;13.33;;;;;30.54;30.02;100898.56;4956627;28;46147;-72
2023/06/17 08:55:13;;;;;;;;;15.33;15.33;;;;;30.46;33.61;100885.41;4940213;28;45265;-73
2023/06/17 08:57:40;;;;;;;;;13.00;13.00;;;;;30.47;30.92;100898.00;4940349;28;45291;-72
2023/06/17 09:00:10;;;;;;;;;13.67;13.33;;;;;30.40;31.29;100897.44;4957343;28;45578;-68
2023/06/17 09:02:37;;;;;;;;;14.00;14.00;;;;;30.26;29.65;100888.94;4957316;28;45454;-73
2023/06/17 09:05:02;;;;;;;;;15.33;15.33;;;;;30.09;30.78;100879.28;4957704;28;45316;-72
2023/06/17 09:07:28;;;;;;;;;17.67;16.00;;;;;30.03;32.37;100891.28;4957261;28;45272;-70
2023/06/17 09:09:56;;;;;;;;;14.67;14.67;;;;;29.98;30.25;100901.16;4957016;28;46670;-71
2023/06/17 09:12:24;;;;;;;;;12.00;12.00;;;;;29.93;32.69;100889.34;4957086;28;45294;-70
2023/06/17 09:14:54;;;;;;;;;15.67;14.67;;;;;29.87;30.68;100894.00;4957010;28;45460;-69
2023/06/17 09:17:31;;;;;;;;;15.33;13.67;;;;;29.64;30.36;100872.53;4940022;28;45482;-71
2023/06/17 09:20:08;;;;;;;;;14.00;14.00;;;;;29.54;30.48;100873.28;4956982;28;46515;-71
2023/06/17 09:22:35;;;;;;;;;12.67;12.67;;;;;29.64;30.88;100891.72;4956794;28;45613;-71
2023/06/17 09:25:00;;;;;;;;;20.33;17.00;;;;;29.58;30.83;100890.84;4957066;28;45283;-69
2023/06/17 09:27:26;;;;;;;;;14.00;13.00;;;;;29.27;31.98;100853.41;4957310;28;45461;-70
2023/06/17 09:30:06;;;;;;;;;12.67;12.67;;;;;29.61;31.59;100895.78;4939595;28;47731;-68
2023/06/17 09:32:42;;;;;;;;;16.67;15.67;;;;;29.66;31.54;100895.00;4956841;28;45453;-70
2023/06/17 09:35:14;;;;;;;;;13.33;12.67;;;;;29.64;32.08;100884.31;4956968;28;45374;-69
2023/06/17 09:37:41;;;;;;;;;17.33;16.33;;;;;29.55;31.51;100868.63;4957102;28;45464;-72
2023/06/17 09:40:07;;;;;;;;;12.33;11.00;;;;;29.61;32.04;100884.81;4956946;28;45970;-68
2023/06/17 09:42:33;;;;;;;;;18.00;16.33;;;;;29.15;31.90;100798.84;4956910;28;45421;-71
2023/06/17 09:45:03;;;;;;;;;16.00;14.67;;;;;29.62;31.36;100877.44;4940851;28;45588;-70
2023/06/17 09:47:32;;;;;;;;;15.00;15.00;;;;;29.66;31.94;100873.09;4960654;28;45473;-70
2023/06/17 09:50:02;;;;;;;;;16.00;16.00;;;;;29.72;32.17;100885.72;4959876;28;46502;-69
2023/06/17 09:52:30;;;;;;;;;15.67;13.00;;;;;29.70;31.45;100876.94;4959759;28;45351;-68
2023/06/17 09:54:57;;;;;;;;;11.33;11.33;;;;;29.84;33.97;100882.75;4942805;28;45400;-71
2023/06/17 09:57:26;;;;;;;;;18.00;15.00;;;;;29.76;32.81;100859.41;4960455;28;45400;-69
2023/06/17 09:59:55;;;;;;;;;17.67;15.67;;;;;29.92;31.68;100880.31;4959674;28;46192;-69
2023/06/17 10:02:20;;;;;;;;;14.67;13.00;;;;;29.91;33.06;100866.88;4959776;28;45353;-70
2023/06/17 10:04:46;;;;;;;;;15.67;15.67;;;;;30.03;31.64;100872.91;4959924;28;45364;-71
2023/06/17 10:07:14;;;;;;;;;15.00;15.00;;;;;30.10;32.83;100878.19;4960182;28;45560;-70
2023/06/17 10:09:40;;;;;;;;;16.67;16.67;;;;;30.11;31.92;100866.94;4959968;28;45553;-71
2023/06/17 10:12:07;;;;;;;;;13.67;13.33;;;;;30.10;31.84;100876.28;4959869;28;45207;-70
2023/06/17 10:14:34;;;;;;;;;21.00;19.67;;;;;30.10;31.86;100870.78;4960059;28;45508;-70
2023/06/17 10:17:02;;;;;;;;;18.00;16.00;;;;;29.69;35.23;100809.53;4959859;28;45497;-69
2023/06/17 10:19:33;;;;;;;;;16.67;15.33;;;;;29.87;32.58;100841.91;4958146;28;47329;-69
2023/06/17 10:22:01;;;;;;;;;14.33;13.67;;;;;30.09;31.70;100873.81;4959619;28;45564;-72
2023/06/17 10:24:27;;;;;;;;;17.67;15.33;;;;;30.03;31.45;100847.41;4959769;28;45236;-74
2023/06/17 10:26:53;;;;;;;;;12.33;10.67;;;;;30.05;33.35;100856.25;4960273;28;45500;-71
2023/06/17 10:29:19;;;;;;;;;15.00;14.33;;;;;30.09;31.14;100852.69;4959448;28;46626;-69
2023/06/17 10:31:44;;;;;;;;;15.33;15.00;;;;;29.76;32.18;100799.13;4959402;28;45169;-69
2023/06/17 10:34:22;;;;;;;;;16.33;16.33;;;;;30.08;31.97;100844.75;4959760;28;45233;-72
2023/06/17 10:36:51;;;;;;;;;20.00;17.67;;;;;30.18;33.03;100844.75;4959792;28;45304;-70
2023/06/17 10:39:17;;;;;;;;;19.33;18.00;;;;;30.21;34.05;100852.44;4941452;28;45932;-70
2023/06/17 10:41:42;;;;;;;;;17.00;17.00;;;;;30.26;33.75;100846.97;4959398;28;45484;-72
2023/06/17 10:44:41;;;;;;;;;19.33;17.33;;;;;30.30;32.61;100842.56;4959602;28;45356;-74
2023/06/17 10:47:21;;;;;;;;;17.00;15.33;;;;;30.32;33.16;100842.31;4941224;28;45475;-70
2023/06/17 10:49:49;;;;;;;;;14.33;14.33;;;;;30.25;33.03;100829.69;4959176;28;46574;-70
2023/06/17 10:52:15;;;;;;;;;19.67;17.67;;;;;30.25;34.17;100824.19;4958707;28;45339;-70
2023/06/17 10:54:59;;;;;;;;;24.00;23.00;;;;;30.28;31.61;100837.38;4959289;28;45571;-71
2023/06/17 10:57:34;;;;;;;;;21.33;21.00;;;;;30.21;32.22;100828.56;4958254;28;45545;-69
2023/06/17 11:00:06;;;;;;;;;17.67;17.00;;;;;30.25;32.25;100834.34;4959047;28;46130;-68
2023/06/17 11:02:31;;;;;;;;;17.33;16.00;;;;;30.19;34.35;100819.78;4958836;28;45388;-68
2023/06/17 11:04:57;;;;;;;;;20.33;17.33;;;;;30.26;32.35;100830.50;4959122;28;45517;-69
2023/06/17 11:07:26;;;;;;;;;20.33;20.33;;;;;30.20;31.86;100820.63;4941543;28;45598;-70